createdAt,value
2023-04-17T05:01:10.809Z,500.00
2023-04-17T05:02:10.917Z,500.00
2023-04-17T05:03:10.980Z,500.00
2023-04-17T05:04:10.939Z,500.00
2023-04-17T05:05:10.873Z,500.00
2023-04-17T05:06:10.881Z,500.00
2023-04-17T05:07:10.909Z,400.00
2023-04-17T05:08:11.010Z,400.00
2023-04-17T05:09:11.184Z,400.00
2023-04-17T05:10:11.004Z,400.00
2023-04-17T05:11:10.988Z,400.00
2023-04-17T05:12:10.948Z,400.00
2023-04-17T05:13:11.004Z,400.00
2023-04-17T05:14:11.042Z,400.00
2023-04-17T05:15:11.092Z,400.00
2023-04-17T05:16:11.213Z,400.00
2023-04-17T05:17:11.200Z,400.00
2023-04-17T05:18:11.247Z,400.00
2023-04-17T05:19:11.550Z,400.00
2023-04-17T05:20:11.359Z,400.00
2023-04-17T05:21:11.429Z,400.00
2023-04-17T05:22:11.460Z,400.00
2023-04-17T05:23:11.509Z,400.00
2023-04-17T05:24:11.573Z,400.00
2023-04-17T05:25:11.600Z,400.00
2023-04-17T05:26:12.436Z,430.00
2023-04-17T05:27:11.749Z,470.00
2023-04-17T05:28:12.619Z,500.00
2023-04-17T05:29:12.026Z,500.00
2023-04-17T05:30:11.800Z,500.00
2023-04-17T05:31:11.926Z,500.00
2023-04-17T05:32:11.882Z,500.00
2023-04-17T05:33:12.024Z,501.00
2023-04-17T05:34:11.968Z,499.00
2023-04-17T05:35:12.010Z,502.00
2023-04-17T05:36:12.093Z,500.00
2023-04-17T05:37:12.139Z,500.00
2023-04-17T05:38:12.150Z,501.00
2023-04-17T05:39:12.340Z,503.00
2023-04-17T05:40:12.273Z,502.00
2023-04-17T05:41:12.331Z,503.00
2023-04-17T05:42:12.346Z,500.00
2023-04-17T05:43:12.383Z,502.00
2023-04-17T05:44:12.416Z,503.00
2023-04-17T05:45:12.593Z,501.00
2023-04-17T05:46:12.559Z,504.00
2023-04-17T05:47:12.458Z,500.00
2023-04-17T05:48:12.577Z,503.00
2023-04-17T05:49:12.749Z,505.00
2023-04-17T05:50:12.553Z,501.00
2023-04-17T05:51:12.533Z,505.00
2023-04-17T05:52:12.537Z,500.00
2023-04-17T05:53:12.559Z,504.00
2023-04-17T05:54:14.371Z,501.00
2023-04-17T05:55:12.600Z,511.00
2023-04-17T05:56:12.542Z,512.00
2023-04-17T05:57:12.689Z,508.00
2023-04-17T05:59:12.737Z,505.00
2023-04-17T06:00:12.540Z,504.00
2023-04-17T06:01:12.524Z,492.00
2023-04-17T06:02:12.685Z,507.00
2023-04-17T06:03:12.755Z,507.00
2023-04-17T06:04:12.862Z,497.00
2023-04-17T06:05:12.949Z,504.00
2023-04-17T06:06:12.481Z,510.00
2023-04-17T06:07:12.466Z,507.00
2023-04-17T06:08:12.446Z,509.00
2023-04-17T06:09:12.718Z,510.00
2023-04-17T06:10:12.462Z,516.00
2023-04-17T06:11:12.483Z,523.00
2023-04-17T06:12:12.505Z,528.00
2023-04-17T06:13:12.495Z,531.00
2023-04-17T06:14:12.410Z,541.00
2023-04-17T06:15:12.466Z,541.00
2023-04-17T06:16:12.401Z,547.00
2023-04-17T06:17:12.556Z,546.00
2023-04-17T06:18:12.465Z,559.00
2023-04-17T06:19:12.675Z,561.00
2023-04-17T06:20:12.561Z,562.00
2023-04-17T06:21:12.561Z,562.00
2023-04-17T06:22:12.654Z,565.00
2023-04-17T06:23:12.707Z,561.00
2023-04-17T06:24:12.632Z,562.00
2023-04-17T06:25:12.650Z,567.00
2023-04-17T06:26:12.690Z,572.00
2023-04-17T06:27:12.679Z,571.00
2023-04-17T06:28:12.754Z,571.00
2023-04-17T06:29:12.908Z,574.00
2023-04-17T06:30:13.159Z,570.00
2023-04-17T06:31:12.742Z,568.00
2023-04-17T06:32:12.763Z,572.00
2023-04-17T06:33:12.954Z,568.00
2023-04-17T06:34:12.843Z,573.00
2023-04-17T06:35:12.797Z,570.00
2023-04-17T06:36:12.849Z,572.00
2023-04-17T06:37:12.821Z,572.00
2023-04-17T06:38:12.831Z,572.00
2023-04-17T06:39:12.968Z,569.00
2023-04-17T06:40:12.803Z,573.00
2023-04-17T06:41:12.893Z,568.00
2023-04-17T06:42:13.024Z,576.00
2023-04-17T06:43:12.932Z,581.00
2023-04-17T06:44:12.956Z,586.00
2023-04-17T06:45:13.020Z,591.00
2023-04-17T06:46:13.319Z,589.00
2023-04-17T06:47:13.171Z,593.00
2023-04-17T06:48:13.196Z,594.00
2023-04-17T06:49:13.551Z,652.00
2023-04-17T06:50:13.411Z,656.00
2023-04-17T06:51:13.359Z,626.00
2023-04-17T06:52:13.409Z,632.00
2023-04-17T06:53:13.395Z,633.00
2023-04-17T06:54:22.387Z,632.00
2023-04-17T06:55:13.361Z,633.00
2023-04-17T06:56:13.335Z,634.00
2023-04-17T06:57:13.335Z,635.00
2023-04-17T06:58:13.317Z,637.00
2023-04-17T06:59:13.556Z,634.00
2023-04-17T07:00:13.300Z,637.00
2023-04-17T07:01:13.532Z,631.00
2023-04-17T07:02:13.426Z,639.00
2023-04-17T07:03:13.357Z,638.00
2023-04-17T07:04:13.408Z,632.00
2023-04-17T07:05:13.257Z,637.00
2023-04-17T07:06:13.281Z,635.00
2023-04-17T07:07:13.253Z,645.00
2023-04-17T07:08:13.248Z,637.00
2023-04-17T07:09:13.410Z,643.00
2023-04-17T07:10:13.227Z,640.00
2023-04-17T07:11:13.237Z,644.00
2023-04-17T07:12:13.236Z,645.00
2023-04-17T07:13:13.212Z,653.00
2023-04-17T07:14:13.218Z,645.00
2023-04-17T07:15:13.224Z,645.00
2023-04-17T07:16:13.225Z,648.00
2023-04-17T07:17:13.189Z,809.00
2023-04-17T07:18:13.174Z,658.00
2023-04-17T07:19:13.390Z,652.00
2023-04-17T07:20:13.174Z,655.00
2023-04-17T07:21:13.191Z,652.00
2023-04-17T07:22:13.156Z,650.00
2023-04-17T07:23:13.155Z,659.00
2023-04-17T07:24:13.130Z,656.00
2023-04-17T07:25:13.322Z,657.00
2023-04-17T07:26:13.118Z,649.00
2023-04-17T07:27:13.124Z,653.00
2023-04-17T07:28:13.122Z,659.00
2023-04-17T07:29:13.374Z,657.00
2023-04-17T07:30:13.122Z,665.00
2023-04-17T07:31:13.064Z,672.00
2023-04-17T07:32:13.106Z,662.00
2023-04-17T07:33:13.076Z,660.00
2023-04-17T07:34:13.048Z,661.00
2023-04-17T07:35:13.058Z,662.00
2023-04-17T07:36:13.049Z,665.00
2023-04-17T07:37:13.067Z,686.00
2023-04-17T07:38:13.014Z,659.00
2023-04-17T07:39:13.189Z,657.00
2023-04-17T07:40:13.016Z,651.00
2023-04-17T07:41:13.009Z,702.00
2023-04-17T07:42:13.017Z,656.00
2023-04-17T07:43:13.141Z,713.00
2023-04-17T07:44:13.039Z,742.00
2023-04-17T07:45:13.016Z,706.00
2023-04-17T07:46:13.102Z,720.00
2023-04-17T07:47:13.091Z,721.00
2023-04-17T07:48:13.018Z,710.00
2023-04-17T07:49:13.037Z,721.00
2023-04-17T07:50:12.933Z,735.00
2023-04-17T07:51:12.956Z,756.00
2023-04-17T07:52:13.008Z,790.00
2023-04-17T07:53:12.967Z,792.00
2023-04-17T07:54:12.897Z,782.00
2023-04-17T07:55:12.920Z,771.00
2023-04-17T07:56:12.885Z,798.00
2023-04-17T07:57:12.902Z,818.00
2023-04-17T07:58:12.909Z,838.00
2023-04-17T07:59:13.287Z,797.00
2023-04-17T08:00:12.836Z,761.00
2023-04-17T08:01:12.854Z,814.00
2023-04-17T08:02:13.002Z,793.00
2023-04-17T08:03:13.005Z,802.00
2023-04-17T08:04:13.094Z,857.00
2023-04-17T08:05:12.902Z,863.00
2023-04-17T08:06:12.938Z,873.00
2023-04-17T08:07:13.002Z,856.00
2023-04-17T08:08:13.057Z,855.00
2023-04-17T08:09:13.488Z,860.00
2023-04-17T08:10:13.199Z,833.00
2023-04-17T08:11:13.232Z,791.00
2023-04-17T08:12:13.294Z,750.00
2023-04-17T08:13:13.347Z,729.00
2023-04-17T08:14:13.400Z,693.00
2023-04-17T08:15:13.458Z,678.00
2023-04-17T08:16:13.550Z,673.00
2023-04-17T08:17:13.578Z,661.00
2023-04-17T08:18:13.577Z,655.00
2023-04-17T08:19:13.759Z,644.00
2023-04-17T08:20:13.704Z,647.00
2023-04-17T08:21:13.752Z,640.00
2023-04-17T08:22:13.831Z,637.00
2023-04-17T08:23:13.838Z,631.00
2023-04-17T08:24:13.882Z,627.00
2023-04-17T08:25:13.924Z,617.00
2023-04-17T08:26:13.895Z,614.00
2023-04-17T08:27:13.909Z,606.00
2023-04-17T08:28:13.933Z,602.00
2023-04-17T08:29:14.294Z,617.00
2023-04-17T08:30:17.821Z,629.00
2023-04-17T08:31:14.948Z,630.00
2023-04-17T08:32:15.423Z,630.00
2023-04-17T08:33:13.969Z,635.00
2023-04-17T08:34:15.323Z,668.00
2023-04-17T08:35:13.963Z,699.00
2023-04-17T08:36:13.910Z,741.00
2023-04-17T08:37:13.868Z,742.00
2023-04-17T08:38:13.869Z,738.00
2023-04-17T08:39:14.257Z,721.00
2023-04-17T08:40:13.841Z,742.00
2023-04-17T08:41:13.918Z,750.00
2023-04-17T08:42:18.447Z,753.00
2023-04-17T08:43:14.839Z,753.00
2023-04-17T08:44:13.860Z,757.00
2023-04-17T08:45:13.852Z,768.00
2023-04-17T08:46:13.920Z,792.00
2023-04-17T08:47:13.887Z,842.00
2023-04-17T08:48:13.805Z,859.00
2023-04-17T08:49:14.077Z,564.00
2023-04-17T08:50:13.808Z,488.00
2023-04-17T08:51:13.794Z,485.00
2023-04-17T08:52:13.798Z,504.00
2023-04-17T08:53:13.769Z,503.00
2023-04-17T08:54:13.782Z,478.00
2023-04-17T08:55:13.961Z,498.00
2023-04-17T08:56:13.898Z,566.00
2023-04-17T08:57:13.859Z,593.00
2023-04-17T08:58:13.947Z,622.00
2023-04-17T08:59:14.108Z,654.00
2023-04-17T09:00:14.000Z,697.00
2023-04-17T09:01:13.977Z,719.00
2023-04-17T09:02:14.025Z,802.00
2023-04-17T09:03:14.402Z,863.00
2023-04-17T09:04:14.300Z,907.00
2023-04-17T09:05:14.107Z,1045.00
2023-04-17T09:06:14.090Z,1065.00
2023-04-17T09:07:14.116Z,1130.00
2023-04-17T09:08:14.156Z,1135.00
2023-04-17T09:09:14.130Z,1136.00
2023-04-17T09:10:14.191Z,1143.00
2023-04-17T09:11:14.246Z,1188.00
2023-04-17T09:12:14.331Z,1203.00
2023-04-17T09:13:14.417Z,1226.00
2023-04-17T09:14:14.378Z,1225.00
2023-04-17T09:15:14.392Z,1254.00
2023-04-17T09:16:14.450Z,1289.00
2023-04-17T09:17:14.447Z,1290.00
2023-04-17T09:18:14.447Z,1291.00
2023-04-17T09:19:14.469Z,1324.00
2023-04-17T09:20:14.418Z,1309.00
2023-04-17T09:21:14.415Z,1308.00
2023-04-17T09:22:14.413Z,1294.00
2023-04-17T09:23:14.442Z,1300.00
2023-04-17T09:24:14.518Z,1307.00
2023-04-17T09:25:14.492Z,1304.00
2023-04-17T09:26:14.468Z,1307.00
2023-04-17T09:27:14.504Z,1301.00
2023-04-17T09:28:14.546Z,1298.00
2023-04-17T09:29:14.812Z,1307.00
2023-04-17T09:30:14.636Z,1292.00
2023-04-17T09:31:14.699Z,1282.00
2023-04-17T09:32:14.755Z,1307.00
2023-04-17T09:33:15.305Z,1334.00
2023-04-17T09:34:14.852Z,1384.00
2023-04-17T09:35:14.888Z,1391.00
2023-04-17T09:36:14.971Z,1382.00
2023-04-17T09:37:15.072Z,1359.00
2023-04-17T09:38:15.090Z,1359.00
2023-04-17T09:39:15.153Z,1387.00
2023-04-17T09:40:15.207Z,1386.00
2023-04-17T09:41:15.269Z,1405.00
2023-04-17T09:42:15.345Z,1397.00
2023-04-17T09:43:15.380Z,1394.00
2023-04-17T09:44:15.413Z,1405.00
2023-04-17T09:45:15.423Z,1409.00
2023-04-17T09:46:15.497Z,1398.00
2023-04-17T09:47:15.481Z,1401.00
2023-04-17T09:48:15.554Z,1399.00
2023-04-17T09:49:15.492Z,1401.00
2023-04-17T09:50:15.506Z,1384.00
2023-04-17T09:51:15.545Z,1388.00
2023-04-17T09:52:15.518Z,1394.00
2023-04-17T09:53:15.589Z,1378.00
2023-04-17T09:54:15.739Z,1362.00
2023-04-17T09:55:15.579Z,1378.00
2023-04-17T09:56:15.557Z,1369.00
2023-04-17T09:57:15.534Z,1361.00
2023-04-17T09:58:15.601Z,1359.00
2023-04-17T09:59:15.594Z,1367.00
2023-04-17T10:00:15.609Z,1346.00
2023-04-17T10:01:15.654Z,1350.00
2023-04-17T10:02:15.730Z,1350.00
2023-04-17T10:03:15.725Z,1353.00
2023-04-17T10:04:15.821Z,1349.00
2023-04-17T10:05:15.768Z,1345.00
2023-04-17T10:06:15.603Z,1350.00
2023-04-17T10:07:15.572Z,1349.00
2023-04-17T10:08:15.566Z,1345.00
2023-04-17T10:09:15.577Z,1345.00
2023-04-17T10:10:15.563Z,1335.00
2023-04-17T10:11:15.566Z,1327.00
2023-04-17T10:12:15.609Z,1350.00
2023-04-17T10:13:15.581Z,1350.00
2023-04-17T10:14:15.658Z,1340.00
2023-04-17T10:15:15.588Z,1332.00
2023-04-17T10:16:15.653Z,1323.00
2023-04-17T10:17:15.600Z,1339.00
2023-04-17T10:18:15.597Z,1333.00
2023-04-17T10:19:15.581Z,1320.00
2023-04-17T10:20:15.655Z,1342.00
2023-04-17T10:21:15.634Z,1329.00
2023-04-17T10:22:15.729Z,1344.00
2023-04-17T10:23:15.675Z,1308.00
2023-04-17T10:24:15.709Z,1322.00
2023-04-17T10:25:15.674Z,1315.00
2023-04-17T10:26:15.733Z,1314.00
2023-04-17T10:27:15.677Z,1329.00
2023-04-17T10:28:15.693Z,1329.00
2023-04-17T10:29:15.669Z,1334.00
2023-04-17T10:30:15.793Z,1328.00
2023-04-17T10:31:15.748Z,1321.00
2023-04-17T10:32:15.792Z,1328.00
2023-04-17T10:33:15.776Z,1316.00
2023-04-17T10:34:15.641Z,1337.00
2023-04-17T10:35:15.679Z,1334.00
2023-04-17T10:36:15.708Z,1339.00
2023-04-17T10:37:15.756Z,1329.00
2023-04-17T10:38:15.674Z,1329.00
2023-04-17T10:39:15.685Z,1309.00
2023-04-17T10:40:15.708Z,1319.00
2023-04-17T10:41:15.710Z,1325.00
2023-04-17T10:42:15.708Z,1332.00
2023-04-17T10:43:15.711Z,1333.00
2023-04-17T10:44:15.740Z,1311.00
2023-04-17T10:45:15.752Z,1316.00
2023-04-17T10:46:15.899Z,1304.00
2023-04-17T10:47:15.961Z,1301.00
2023-04-17T10:48:15.838Z,1309.00
2023-04-17T10:49:15.771Z,1304.00
2023-04-17T10:50:15.772Z,1324.00
2023-04-17T10:51:15.836Z,1314.00
2023-04-17T10:52:15.831Z,1312.00
2023-04-17T10:53:15.844Z,1296.00
2023-04-17T10:54:15.999Z,1296.00
2023-04-17T10:55:15.838Z,1301.00
2023-04-17T10:56:15.868Z,1310.00
2023-04-17T10:57:15.871Z,1307.00
2023-04-17T10:58:15.853Z,1298.00
2023-04-17T10:59:16.244Z,1308.00
2023-04-17T11:00:15.871Z,1303.00
2023-04-17T11:01:15.906Z,1296.00
2023-04-17T11:02:15.939Z,1304.00
2023-04-17T11:03:16.064Z,1332.00
2023-04-17T11:04:15.951Z,1333.00
2023-04-17T11:05:15.909Z,1329.00
2023-04-17T11:06:15.899Z,1320.00
2023-04-17T11:07:18.850Z,1317.00
2023-04-17T11:08:15.972Z,1316.00
2023-04-17T11:09:16.309Z,1318.00
2023-04-17T11:10:15.912Z,1327.00
2023-04-17T11:11:18.554Z,1315.00
2023-04-17T11:12:16.949Z,1316.00
2023-04-17T11:13:15.921Z,1318.00
2023-04-17T11:14:15.926Z,1323.00
2023-04-17T11:15:15.960Z,1325.00
2023-04-17T11:16:15.936Z,1288.00
2023-04-17T11:17:15.913Z,1291.00
2023-04-17T11:18:15.867Z,1289.00
2023-04-17T11:19:15.918Z,1278.00
2023-04-17T11:20:15.913Z,1278.00
2023-04-17T11:21:15.851Z,1257.00
2023-04-17T11:22:15.844Z,1278.00
2023-04-17T11:23:15.855Z,1287.00
2023-04-17T11:24:15.846Z,1296.00
2023-04-17T11:25:16.003Z,1293.00
2023-04-17T11:26:15.839Z,1294.00
2023-04-17T11:27:15.926Z,1305.00
2023-04-17T11:28:15.801Z,1305.00
2023-04-17T11:29:15.799Z,1330.00
2023-04-17T11:30:15.798Z,1321.00
2023-04-17T11:31:18.515Z,1332.00
2023-04-17T11:32:15.804Z,1353.00
2023-04-17T11:33:15.769Z,1384.00
2023-04-17T11:34:15.787Z,1384.00
2023-04-17T11:35:15.760Z,1368.00
2023-04-17T11:36:15.751Z,1408.00
2023-04-17T11:37:15.782Z,1415.00
2023-04-17T11:38:15.809Z,1416.00
2023-04-17T11:39:15.771Z,1414.00
2023-04-17T11:40:15.769Z,1419.00
2023-04-17T11:41:15.764Z,1415.00
2023-04-17T11:42:15.738Z,1421.00
2023-04-17T11:43:15.766Z,1417.00
2023-04-17T11:44:15.727Z,1426.00
2023-04-17T11:45:15.690Z,1422.00
2023-04-17T11:46:15.695Z,1437.00
2023-04-17T11:47:15.684Z,1429.00
2023-04-17T11:48:15.675Z,1436.00
2023-04-17T11:49:15.703Z,1426.00
2023-04-17T11:50:15.708Z,1435.00
2023-04-17T11:51:15.648Z,1479.00
2023-04-17T11:52:17.688Z,1472.00
2023-04-17T11:53:15.664Z,1469.00
2023-04-17T11:54:15.649Z,1453.00
2023-04-17T11:55:15.740Z,1473.00
2023-04-17T11:56:15.890Z,1467.00
2023-04-17T11:57:15.829Z,1474.00
2023-04-17T11:58:15.883Z,1468.00
2023-04-17T11:59:15.974Z,1464.00
2023-04-17T12:00:15.996Z,1466.00
2023-04-17T12:01:16.087Z,1479.00
2023-04-17T12:02:16.224Z,1478.00
2023-04-17T12:03:16.421Z,1464.00
2023-04-17T12:04:16.772Z,1460.00
2023-04-17T12:05:16.477Z,1435.00
2023-04-17T12:06:16.346Z,850.00
2023-04-17T12:07:16.338Z,593.00
2023-04-17T12:08:16.400Z,604.00
2023-04-17T12:09:16.429Z,554.00
2023-04-17T12:10:16.441Z,543.00
2023-04-17T12:11:17.004Z,562.00
2023-04-17T12:12:16.544Z,561.00
2023-04-17T12:13:16.594Z,564.00
2023-04-17T12:14:16.651Z,548.00
2023-04-17T12:15:16.690Z,631.00
2023-04-17T12:16:16.860Z,582.00
2023-04-17T12:17:16.862Z,514.00
2023-04-17T12:18:16.847Z,545.00
2023-04-17T12:19:16.896Z,500.00
2023-04-17T12:20:16.915Z,499.00
2023-04-17T12:21:16.954Z,515.00
2023-04-17T12:22:16.932Z,548.00
2023-04-17T12:23:16.955Z,548.00
2023-04-17T12:24:16.976Z,563.00
2023-04-17T12:25:16.949Z,519.00
2023-04-17T12:26:16.944Z,495.00
2023-04-17T12:27:16.990Z,518.00
2023-04-17T12:28:17.061Z,526.00
2023-04-17T12:29:17.188Z,548.00
2023-04-17T12:30:17.121Z,561.00
2023-04-17T12:31:17.189Z,547.00
2023-04-17T12:32:17.214Z,538.00
2023-04-17T12:33:17.305Z,518.00
2023-04-17T12:34:17.291Z,499.00
2023-04-17T12:35:17.337Z,506.00
2023-04-17T12:36:17.485Z,559.00
2023-04-17T12:37:17.495Z,537.00
2023-04-17T12:38:17.478Z,504.00
2023-04-17T12:39:17.581Z,573.00
2023-04-17T12:40:17.627Z,797.00
2023-04-17T12:41:17.693Z,889.00
2023-04-17T12:42:17.662Z,932.00
2023-04-17T12:43:17.641Z,928.00
2023-04-17T12:44:17.717Z,948.00
2023-04-17T12:45:17.784Z,970.00
2023-04-17T12:46:17.830Z,969.00
2023-04-17T12:47:17.883Z,980.00
2023-04-17T12:48:17.888Z,983.00
2023-04-17T12:49:17.879Z,1051.00
2023-04-17T12:50:17.920Z,1016.00
2023-04-17T12:51:17.872Z,1058.00
2023-04-17T12:52:17.933Z,1068.00
2023-04-17T12:53:17.896Z,1154.00
2023-04-17T12:54:17.905Z,1089.00
2023-04-17T12:55:17.939Z,1173.00
2023-04-17T12:56:17.915Z,1211.00
2023-04-17T12:57:17.989Z,1215.00
2023-04-17T12:58:18.032Z,1154.00
2023-04-17T12:59:18.073Z,1166.00
2023-04-17T13:00:18.125Z,1175.00
2023-04-17T13:01:18.324Z,1196.00
2023-04-17T13:02:18.414Z,1294.00
2023-04-17T13:03:18.594Z,1343.00
2023-04-17T13:04:18.991Z,1391.00
2023-04-17T13:05:18.434Z,1410.00
2023-04-17T13:06:18.513Z,1417.00
2023-04-17T13:07:18.546Z,1430.00
2023-04-17T13:08:18.571Z,1430.00
2023-04-17T13:09:18.649Z,1430.00
2023-04-17T13:10:18.740Z,1411.00
2023-04-17T13:11:18.765Z,1419.00
2023-04-17T13:12:18.780Z,1411.00
2023-04-17T13:13:18.848Z,1389.00
2023-04-17T13:14:18.921Z,1378.00
2023-04-17T13:15:18.978Z,1367.00
2023-04-17T13:16:19.025Z,1302.00
2023-04-17T13:17:19.079Z,1394.00
2023-04-17T13:18:19.113Z,1386.00
2023-04-17T13:19:19.111Z,1345.00
2023-04-17T13:20:19.214Z,1339.00
2023-04-17T13:21:19.326Z,1319.00
2023-04-17T13:22:19.291Z,1310.00
2023-04-17T13:23:19.306Z,1348.00
2023-04-17T13:24:19.336Z,1342.00
2023-04-17T13:25:19.367Z,1384.00
2023-04-17T13:26:19.426Z,1376.00
2023-04-17T13:27:19.442Z,1373.00
2023-04-17T13:28:19.465Z,1340.00
2023-04-17T13:29:19.990Z,1354.00
2023-04-17T13:30:19.562Z,1345.00
2023-04-17T13:31:19.809Z,1352.00
2023-04-17T13:32:19.627Z,1348.00
2023-04-17T13:33:19.699Z,1326.00
2023-04-17T13:34:19.713Z,1319.00
2023-04-17T13:35:19.724Z,1355.00
2023-04-17T13:36:19.709Z,1279.00
2023-04-17T13:37:19.768Z,1268.00
2023-04-17T13:38:19.804Z,1206.00
2023-04-17T13:39:19.860Z,1283.00
2023-04-17T13:40:19.862Z,1285.00
2023-04-17T13:41:19.983Z,1310.00
2023-04-17T13:42:19.914Z,1281.00
2023-04-17T13:43:19.944Z,1115.00
2023-04-17T13:44:19.925Z,1158.00
2023-04-17T13:45:20.046Z,1239.00
2023-04-17T13:46:20.057Z,1258.00
2023-04-17T13:47:20.053Z,1223.00
2023-04-17T13:48:20.052Z,1264.00
2023-04-17T13:49:20.097Z,1264.00
2023-04-17T13:50:20.155Z,1228.00
2023-04-17T13:51:20.145Z,1265.00
2023-04-17T13:52:20.244Z,1324.00
2023-04-17T13:53:20.219Z,1259.00
2023-04-17T13:54:20.261Z,1314.00
2023-04-17T13:55:20.241Z,1292.00
2023-04-17T13:56:20.272Z,1268.00
2023-04-17T13:57:20.314Z,1295.00
2023-04-17T13:58:20.329Z,1279.00
2023-04-17T13:59:20.343Z,1291.00
2023-04-17T14:00:20.344Z,1263.00
2023-04-17T14:01:20.448Z,1240.00
2023-04-17T14:02:20.547Z,1268.00
2023-04-17T14:03:20.520Z,1245.00
2023-04-17T14:04:20.641Z,1286.00
2023-04-17T14:05:20.467Z,1228.00
2023-04-17T14:06:20.490Z,1256.00
2023-04-17T14:07:20.473Z,1296.00
2023-04-17T14:08:20.451Z,1326.00
2023-04-17T14:09:20.485Z,1288.00
2023-04-17T14:10:20.522Z,1425.00
2023-04-17T14:11:20.539Z,1449.00
2023-04-17T14:12:20.583Z,1469.00
2023-04-17T14:13:20.579Z,1477.00
2023-04-17T14:14:20.601Z,1484.00
2023-04-17T14:15:20.582Z,1514.00
2023-04-17T14:16:20.617Z,1516.00
2023-04-17T14:17:20.583Z,1571.00
2023-04-17T14:18:20.607Z,1546.00
2023-04-17T14:19:20.968Z,1550.00
2023-04-17T14:20:20.658Z,1565.00
2023-04-17T14:21:20.661Z,1511.00
2023-04-17T14:22:20.685Z,1550.00
2023-04-17T14:23:20.713Z,1592.00
2023-04-17T14:24:20.688Z,1520.00
2023-04-17T14:25:20.693Z,1495.00
2023-04-17T14:26:20.729Z,1475.00
2023-04-17T14:27:20.738Z,1689.00
2023-04-17T14:28:20.730Z,1829.00
2023-04-17T14:29:20.705Z,2320.00
2023-04-17T14:30:20.768Z,2458.00
2023-04-17T14:31:20.782Z,2389.00
2023-04-17T14:32:20.763Z,2413.00
2023-04-17T14:33:20.739Z,2373.00
2023-04-17T14:34:20.811Z,2292.00
2023-04-17T14:35:20.769Z,2126.00
2023-04-17T14:36:20.798Z,2084.00
2023-04-17T14:37:20.860Z,2083.00
2023-04-17T14:38:20.812Z,2039.00
2023-04-17T14:39:20.834Z,2009.00
2023-04-17T14:40:20.802Z,2021.00
2023-04-17T14:41:20.978Z,1996.00
2023-04-17T14:42:20.856Z,1983.00
2023-04-17T14:43:20.878Z,1968.00
2023-04-17T14:44:20.850Z,1961.00
2023-04-17T14:45:20.856Z,1969.00
2023-04-17T14:46:20.895Z,1963.00
2023-04-17T14:47:20.950Z,1964.00
2023-04-17T14:55:02.939Z,500.00
2023-04-17T14:55:57.548Z,500.00
2023-04-17T14:56:57.522Z,500.00
2023-04-17T14:57:57.518Z,500.00
2023-04-17T14:58:57.528Z,500.00
2023-04-17T14:59:57.598Z,500.00
2023-04-17T15:00:57.608Z,501.00
2023-04-17T15:01:57.715Z,500.00
2023-04-17T15:02:57.782Z,501.00
2023-04-17T15:03:57.796Z,501.00
2023-04-17T15:04:57.650Z,500.00
2023-04-17T15:05:57.691Z,503.00
2023-04-17T15:06:57.645Z,504.00
2023-04-17T15:07:57.667Z,502.00
2023-04-17T15:08:57.682Z,504.00
2023-04-17T15:09:57.680Z,501.00
2023-04-17T15:10:57.755Z,501.00
2023-04-17T15:11:57.714Z,505.00
2023-04-17T15:12:57.709Z,501.00
2023-04-17T15:13:57.728Z,502.00
2023-04-17T15:14:57.826Z,500.00
2023-04-17T15:15:57.773Z,504.00
2023-04-17T15:16:57.851Z,506.00
2023-04-17T15:17:57.788Z,505.00
2023-04-17T15:18:57.780Z,502.00
2023-04-17T15:19:57.818Z,506.00
2023-04-17T15:20:57.808Z,505.00
2023-04-17T15:21:57.847Z,504.00
2023-04-17T15:22:57.831Z,503.00
2023-04-17T15:23:57.850Z,506.00
2023-04-17T15:24:57.912Z,505.00
2023-04-17T15:25:57.915Z,506.00
2023-04-17T15:26:57.865Z,512.00
2023-04-17T15:27:57.883Z,507.00
2023-04-17T15:28:57.899Z,507.00
2023-04-17T15:29:57.916Z,506.00
2023-04-17T15:30:57.907Z,505.00
2023-04-17T15:31:57.981Z,505.00
2023-04-17T15:32:58.014Z,502.00
2023-04-17T15:33:57.970Z,503.00
2023-04-17T15:34:58.071Z,503.00
2023-04-17T15:35:58.026Z,509.00
2023-04-17T15:36:58.036Z,511.00
2023-04-17T15:37:58.046Z,510.00
2023-04-17T15:38:58.010Z,504.00
2023-04-17T15:39:58.082Z,506.00
2023-04-17T15:40:58.070Z,506.00
2023-04-17T15:41:58.140Z,503.00
2023-04-17T15:42:58.125Z,504.00
2023-04-17T15:43:58.110Z,508.00
2023-04-17T15:44:58.163Z,502.00
2023-04-17T15:45:58.190Z,502.00
2023-04-17T15:46:58.135Z,503.00
2023-04-17T15:47:58.268Z,504.00
2023-04-17T15:49:21.833Z,505.00
2023-04-17T15:49:59.167Z,506.00
2023-04-17T15:50:58.131Z,505.00
2023-04-17T15:51:58.139Z,501.00
2023-04-17T15:52:58.157Z,505.00
2023-04-17T15:53:58.147Z,499.00
2023-04-17T15:54:58.151Z,502.00
2023-04-17T15:55:58.103Z,507.00
2023-04-17T15:56:58.102Z,504.00
2023-04-17T15:57:58.105Z,501.00
2023-04-17T15:58:58.161Z,503.00
2023-04-17T15:59:58.054Z,506.00
2023-04-17T16:00:58.084Z,504.00
2023-04-17T16:01:58.195Z,506.00
2023-04-17T16:02:58.152Z,508.00
2023-04-17T16:03:58.236Z,504.00
2023-04-17T16:04:58.077Z,505.00
2023-04-17T16:05:58.019Z,507.00
2023-04-17T16:06:58.026Z,507.00
2023-04-17T16:07:58.004Z,507.00
2023-04-17T16:08:58.043Z,502.00
2023-04-17T16:09:57.998Z,507.00
2023-04-17T16:10:57.976Z,502.00
2023-04-17T16:11:57.998Z,502.00
2023-04-17T16:12:58.020Z,510.00
2023-04-17T16:13:57.983Z,508.00
2023-04-17T16:14:57.989Z,505.00
2023-04-17T16:15:57.998Z,506.00
2023-04-17T16:16:58.783Z,510.00
2023-04-17T16:17:58.008Z,506.00
2023-04-17T16:18:57.930Z,505.00
2023-04-17T16:19:57.933Z,507.00
2023-04-17T16:20:57.968Z,510.00
2023-04-17T16:21:57.966Z,504.00
2023-04-17T16:22:57.973Z,505.00
2023-04-17T16:23:58.002Z,508.00
2023-04-17T16:24:58.011Z,501.00
2023-04-17T16:25:58.001Z,503.00
2023-04-17T16:26:57.998Z,501.00
2023-04-17T16:27:57.998Z,505.00
2023-04-17T16:28:58.050Z,507.00
2023-04-17T16:29:58.036Z,505.00
2023-04-17T16:30:58.067Z,504.00
2023-04-17T16:31:58.202Z,503.00
2023-04-17T16:32:58.214Z,502.00
2023-04-17T16:33:58.118Z,500.00
2023-04-17T16:34:58.124Z,504.00
2023-04-17T16:35:58.194Z,505.00
2023-04-17T16:36:58.167Z,506.00
2023-04-17T16:37:58.163Z,500.00
2023-04-17T16:38:58.228Z,505.00
2023-04-17T16:39:58.191Z,508.00
2023-04-17T16:40:58.226Z,508.00
2023-04-17T16:41:58.257Z,507.00
2023-04-17T16:42:58.304Z,504.00
2023-04-17T16:43:58.266Z,506.00
2023-04-17T16:44:58.355Z,507.00
2023-04-17T16:45:58.487Z,505.00
2023-04-17T16:47:10.075Z,503.00
2023-04-17T16:47:59.411Z,503.00
2023-04-17T16:48:58.384Z,503.00
2023-04-17T16:49:58.299Z,503.00
2023-04-17T16:50:58.278Z,505.00
2023-04-17T16:51:58.297Z,501.00
2023-04-17T16:52:58.299Z,504.00
2023-04-17T16:53:58.305Z,505.00
2023-04-17T16:54:58.361Z,503.00
2023-04-17T16:55:58.261Z,500.00
2023-04-17T16:56:58.268Z,505.00
2023-04-17T16:57:58.214Z,503.00
2023-04-17T16:58:58.261Z,501.00
2023-04-17T16:59:58.220Z,511.00
2023-04-17T17:00:58.279Z,506.00
